sensor_id;sensor_type;location;lat;lon;timestamp;pressure;altitude;pressure_sealevel;temperature;humidity
62952;BME280;52163;52.212;-1.002;2023-04-22T00:00:00;99739.30;;;7.39;97.12
62952;BME280;52163;52.212;-1.002;2023-04-22T00:02:26;99734.90;;;7.37;97.10
62952;BME280;52163;52.212;-1.002;2023-04-22T00:04:51;99732.04;;;7.32;96.42
62952;BME280;52163;52.212;-1.002;2023-04-22T00:07:17;99726.33;;;7.24;96.05
62952;BME280;52163;52.212;-1.002;2023-04-22T00:09:43;99722.45;;;7.18;96.31
62952;BME280;52163;52.212;-1.002;2023-04-22T00:12:08;99719.98;;;7.13;96.28
62952;BME280;52163;52.212;-1.002;2023-04-22T00:14:36;99718.17;;;7.07;96.56
62952;BME280;52163;52.212;-1.002;2023-04-22T00:17:01;99716.91;;;7.05;96.70
62952;BME280;52163;52.212;-1.002;2023-04-22T00:19:27;99711.95;;;7.03;96.89
62952;BME280;52163;52.212;-1.002;2023-04-22T00:21:53;99712.41;;;7.04;97.85
62952;BME280;52163;52.212;-1.002;2023-04-22T00:24:18;99709.80;;;7.06;97.91
62952;BME280;52163;52.212;-1.002;2023-04-22T00:26:44;99700.40;;;7.05;97.23
62952;BME280;52163;52.212;-1.002;2023-04-22T00:29:09;99701.96;;;7.02;97.07
62952;BME280;52163;52.212;-1.002;2023-04-22T00:31:35;99701.37;;;7.00;97.66
62952;BME280;52163;52.212;-1.002;2023-04-22T00:34:00;99693.02;;;6.99;97.88
62952;BME280;52163;52.212;-1.002;2023-04-22T00:36:26;99690.60;;;6.98;97.87
62952;BME280;52163;52.212;-1.002;2023-04-22T00:38:52;99689.52;;;6.95;97.49
62952;BME280;52163;52.212;-1.002;2023-04-22T00:41:18;99686.33;;;6.96;97.98
62952;BME280;52163;52.212;-1.002;2023-04-22T00:43:44;99680.56;;;6.95;97.85
62952;BME280;52163;52.212;-1.002;2023-04-22T00:46:10;99677.53;;;6.96;98.14
62952;BME280;52163;52.212;-1.002;2023-04-22T00:48:36;99672.28;;;6.96;98.05
62952;BME280;52163;52.212;-1.002;2023-04-22T00:51:02;99666.60;;;6.97;98.73
62952;BME280;52163;52.212;-1.002;2023-04-22T00:53:28;99665.52;;;6.97;99.30
62952;BME280;52163;52.212;-1.002;2023-04-22T00:55:53;99663.92;;;6.95;98.95
62952;BME280;52163;52.212;-1.002;2023-04-22T00:58:20;99661.19;;;6.90;98.67
62952;BME280;52163;52.212;-1.002;2023-04-22T01:00:47;99660.11;;;6.85;98.05
62952;BME280;52163;52.212;-1.002;2023-04-22T01:03:13;99653.90;;;6.80;97.92
62952;BME280;52163;52.212;-1.002;2023-04-22T01:05:40;99652.55;;;6.76;97.90
62952;BME280;52163;52.212;-1.002;2023-04-22T01:08:05;99648.12;;;6.71;97.62
62952;BME280;52163;52.212;-1.002;2023-04-22T01:10:31;99649.27;;;6.66;97.67
62952;BME280;52163;52.212;-1.002;2023-04-22T01:12:56;99648.75;;;6.60;97.52
62952;BME280;52163;52.212;-1.002;2023-04-22T01:15:22;99646.02;;;6.55;97.69
62952;BME280;52163;52.212;-1.002;2023-04-22T01:17:47;99643.21;;;6.52;98.02
62952;BME280;52163;52.212;-1.002;2023-04-22T01:20:12;99639.98;;;6.53;98.52
62952;BME280;52163;52.212;-1.002;2023-04-22T01:22:43;99639.34;;;6.56;99.16
62952;BME280;52163;52.212;-1.002;2023-04-22T01:25:10;99636.77;;;6.61;99.52
62952;BME280;52163;52.212;-1.002;2023-04-22T01:27:36;99639.58;;;6.67;99.95
62952;BME280;52163;52.212;-1.002;2023-04-22T01:30:04;99638.11;;;6.74;100.00
62952;BME280;52163;52.212;-1.002;2023-04-22T01:32:30;99630.14;;;6.78;100.00
62952;BME280;52163;52.212;-1.002;2023-04-22T01:34:56;99625.55;;;6.82;100.00
62952;BME280;52163;52.212;-1.002;2023-04-22T01:37:22;99620.25;;;6.85;100.00
62952;BME280;52163;52.212;-1.002;2023-04-22T01:39:47;99616.77;;;6.88;100.00
62952;BME280;52163;52.212;-1.002;2023-04-22T01:42:14;99614.79;;;6.88;100.00
62952;BME280;52163;52.212;-1.002;2023-04-22T01:44:40;99611.67;;;6.90;100.00
62952;BME280;52163;52.212;-1.002;2023-04-22T01:47:06;99609.67;;;6.92;100.00
62952;BME280;52163;52.212;-1.002;2023-04-22T01:49:32;99602.45;;;6.95;100.00
62952;BME280;52163;52.212;-1.002;2023-04-22T01:51:58;99599.30;;;6.98;100.00
62952;BME280;52163;52.212;-1.002;2023-04-22T01:54:24;99598.59;;;6.98;100.00
62952;BME280;52163;52.212;-1.002;2023-04-22T01:56:53;99597.60;;;6.94;100.00
62952;BME280;52163;52.212;-1.002;2023-04-22T01:59:20;99596.86;;;6.89;100.00
62952;BME280;52163;52.212;-1.002;2023-04-22T02:01:46;99600.98;;;6.85;100.00
62952;BME280;52163;52.212;-1.002;2023-04-22T02:04:11;99602.74;;;6.81;100.00
62952;BME280;52163;52.212;-1.002;2023-04-22T02:06:37;99606.31;;;6.80;100.00
62952;BME280;52163;52.212;-1.002;2023-04-22T02:09:02;99606.53;;;6.80;99.97
62952;BME280;52163;52.212;-1.002;2023-04-22T02:11:29;99605.53;;;6.82;100.00
62952;BME280;52163;52.212;-1.002;2023-04-22T02:13:55;99604.02;;;6.81;99.99
62952;BME280;52163;52.212;-1.002;2023-04-22T02:16:21;99600.80;;;6.79;100.00
62952;BME280;52163;52.212;-1.002;2023-04-22T02:18:46;99598.40;;;6.78;99.98
62952;BME280;52163;52.212;-1.002;2023-04-22T02:21:12;99598.29;;;6.80;100.00
62952;BME280;52163;52.212;-1.002;2023-04-22T02:23:38;99599.27;;;6.81;100.00
62952;BME280;52163;52.212;-1.002;2023-04-22T02:26:04;99598.54;;;6.84;100.00
62952;BME280;52163;52.212;-1.002;2023-04-22T02:28:30;99597.41;;;6.88;100.00
62952;BME280;52163;52.212;-1.002;2023-04-22T02:30:56;99595.98;;;6.92;100.00
62952;BME280;52163;52.212;-1.002;2023-04-22T02:33:21;99595.92;;;6.92;100.00
62952;BME280;52163;52.212;-1.002;2023-04-22T02:35:47;99592.52;;;6.94;100.00
62952;BME280;52163;52.212;-1.002;2023-04-22T02:38:12;99598.01;;;6.93;100.00
62952;BME280;52163;52.212;-1.002;2023-04-22T02:40:38;99596.96;;;6.93;100.00
62952;BME280;52163;52.212;-1.002;2023-04-22T02:43:03;99594.88;;;6.95;100.00
62952;BME280;52163;52.212;-1.002;2023-04-22T02:45:29;99591.27;;;6.97;100.00
62952;BME280;52163;52.212;-1.002;2023-04-22T02:47:54;99588.17;;;6.99;100.00
62952;BME280;52163;52.212;-1.002;2023-04-22T02:50:20;99590.20;;;7.01;100.00
62952;BME280;52163;52.212;-1.002;2023-04-22T02:52:45;99591.77;;;7.01;100.00
62952;BME280;52163;52.212;-1.002;2023-04-22T02:55:10;99595.69;;;7.03;100.00
62952;BME280;52163;52.212;-1.002;2023-04-22T02:57:36;99595.46;;;7.04;100.00
62952;BME280;52163;52.212;-1.002;2023-04-22T03:00:02;99592.62;;;7.04;100.00
62952;BME280;52163;52.212;-1.002;2023-04-22T03:02:28;99586.84;;;7.07;100.00
62952;BME280;52163;52.212;-1.002;2023-04-22T03:04:53;99587.88;;;7.10;100.00
62952;BME280;52163;52.212;-1.002;2023-04-22T03:07:19;99585.04;;;7.14;100.00
62952;BME280;52163;52.212;-1.002;2023-04-22T03:09:44;99586.91;;;7.17;100.00
62952;BME280;52163;52.212;-1.002;2023-04-22T03:12:09;99585.77;;;7.19;100.00
62952;BME280;52163;52.212;-1.002;2023-04-22T03:14:35;99585.26;;;7.21;100.00
62952;BME280;52163;52.212;-1.002;2023-04-22T03:17:00;99585.89;;;7.26;100.00
62952;BME280;52163;52.212;-1.002;2023-04-22T03:19:26;99584.21;;;7.30;100.00
62952;BME280;52163;52.212;-1.002;2023-04-22T03:21:51;99577.80;;;7.32;100.00
62952;BME280;52163;52.212;-1.002;2023-04-22T03:24:16;99571.98;;;7.32;100.00
62952;BME280;52163;52.212;-1.002;2023-04-22T03:26:43;99567.83;;;7.34;100.00
62952;BME280;52163;52.212;-1.002;2023-04-22T03:29:08;99561.73;;;7.36;100.00
62952;BME280;52163;52.212;-1.002;2023-04-22T03:31:33;99559.23;;;7.36;100.00
62952;BME280;52163;52.212;-1.002;2023-04-22T03:33:59;99551.86;;;7.36;100.00
62952;BME280;52163;52.212;-1.002;2023-04-22T03:36:26;99543.82;;;7.38;100.00
62952;BME280;52163;52.212;-1.002;2023-04-22T03:38:52;99533.59;;;7.39;100.00
62952;BME280;52163;52.212;-1.002;2023-04-22T03:41:17;99529.32;;;7.37;99.97
62952;BME280;52163;52.212;-1.002;2023-04-22T03:43:43;99528.72;;;7.35;99.97
62952;BME280;52163;52.212;-1.002;2023-04-22T03:46:08;99529.09;;;7.35;99.85
62952;BME280;52163;52.212;-1.002;2023-04-22T03:48:34;99530.51;;;7.35;99.80
62952;BME280;52163;52.212;-1.002;2023-04-22T03:50:59;99530.16;;;7.38;99.95
62952;BME280;52163;52.212;-1.002;2023-04-22T03:53:25;99522.17;;;7.39;99.57
62952;BME280;52163;52.212;-1.002;2023-04-22T03:55:51;99525.98;;;7.40;99.26
62952;BME280;52163;52.212;-1.002;2023-04-22T03:58:17;99524.61;;;7.39;99.27
62952;BME280;52163;52.212;-1.002;2023-04-22T04:00:42;99524.79;;;7.39;98.84
62952;BME280;52163;52.212;-1.002;2023-04-22T04:03:07;99525.80;;;7.37;98.73
62952;BME280;52163;52.212;-1.002;2023-04-22T04:05:33;99525.13;;;7.37;99.09
62952;BME280;52163;52.212;-1.002;2023-04-22T04:07:59;99517.37;;;7.40;99.95
62952;BME280;52163;52.212;-1.002;2023-04-22T04:10:24;99514.79;;;7.44;100.00
62952;BME280;52163;52.212;-1.002;2023-04-22T04:12:49;99514.59;;;7.48;99.45
62952;BME280;52163;52.212;-1.002;2023-04-22T04:15:16;99509.34;;;7.50;99.79
62952;BME280;52163;52.212;-1.002;2023-04-22T04:17:43;99503.94;;;7.52;99.27
62952;BME280;52163;52.212;-1.002;2023-04-22T04:20:11;99503.13;;;7.51;98.85
62952;BME280;52163;52.212;-1.002;2023-04-22T04:22:36;99500.26;;;7.50;98.82
62952;BME280;52163;52.212;-1.002;2023-04-22T04:25:03;99499.33;;;7.47;98.41
62952;BME280;52163;52.212;-1.002;2023-04-22T04:27:28;99497.13;;;7.43;97.71
62952;BME280;52163;52.212;-1.002;2023-04-22T04:29:54;99493.73;;;7.38;97.65
62952;BME280;52163;52.212;-1.002;2023-04-22T04:32:20;99491.97;;;7.33;97.91
62952;BME280;52163;52.212;-1.002;2023-04-22T04:34:46;99487.43;;;7.27;97.65
62952;BME280;52163;52.212;-1.002;2023-04-22T04:37:12;99488.05;;;7.17;97.20
62952;BME280;52163;52.212;-1.002;2023-04-22T04:39:37;99486.94;;;7.09;97.54
62952;BME280;52163;52.212;-1.002;2023-04-22T04:42:03;99487.20;;;7.00;96.82
62952;BME280;52163;52.212;-1.002;2023-04-22T04:44:29;99489.83;;;6.88;96.80
62952;BME280;52163;52.212;-1.002;2023-04-22T04:46:58;99482.02;;;6.78;97.13
62952;BME280;52163;52.212;-1.002;2023-04-22T04:49:23;99482.64;;;6.70;97.27
62952;BME280;52163;52.212;-1.002;2023-04-22T04:51:49;99483.01;;;6.61;97.23
62952;BME280;52163;52.212;-1.002;2023-04-22T04:54:14;99487.95;;;6.55;97.36
62952;BME280;52163;52.212;-1.002;2023-04-22T04:56:40;99495.45;;;6.46;97.26
62952;BME280;52163;52.212;-1.002;2023-04-22T04:59:05;99497.99;;;6.42;98.02
62952;BME280;52163;52.212;-1.002;2023-04-22T05:01:31;99497.20;;;6.41;98.61
62952;BME280;52163;52.212;-1.002;2023-04-22T05:03:56;99494.54;;;6.38;97.98
62952;BME280;52163;52.212;-1.002;2023-04-22T05:06:22;99493.10;;;6.33;97.27
62952;BME280;52163;52.212;-1.002;2023-04-22T05:08:47;99494.66;;;6.27;97.31
62952;BME280;52163;52.212;-1.002;2023-04-22T05:11:12;99488.63;;;6.22;97.43
62952;BME280;52163;52.212;-1.002;2023-04-22T05:13:38;99485.66;;;6.19;97.51
62952;BME280;52163;52.212;-1.002;2023-04-22T05:16:03;99483.02;;;6.16;97.97
62952;BME280;52163;52.212;-1.002;2023-04-22T05:18:29;99483.71;;;6.16;98.14
62952;BME280;52163;52.212;-1.002;2023-04-22T05:20:55;99482.25;;;6.17;98.30
62952;BME280;52163;52.212;-1.002;2023-04-22T05:23:23;99478.61;;;6.20;98.52
62952;BME280;52163;52.212;-1.002;2023-04-22T05:25:48;99477.36;;;6.20;98.10
62952;BME280;52163;52.212;-1.002;2023-04-22T05:28:14;99476.62;;;6.20;97.89
62952;BME280;52163;52.212;-1.002;2023-04-22T05:30:39;99477.55;;;6.20;97.24
62952;BME280;52163;52.212;-1.002;2023-04-22T05:33:04;99476.27;;;6.21;97.20
62952;BME280;52163;52.212;-1.002;2023-04-22T05:35:30;99473.58;;;6.25;97.99
62952;BME280;52163;52.212;-1.002;2023-04-22T05:37:55;99470.08;;;6.31;97.57
62952;BME280;52163;52.212;-1.002;2023-04-22T05:40:21;99465.29;;;6.34;97.06
62952;BME280;52163;52.212;-1.002;2023-04-22T05:42:46;99464.85;;;6.39;97.17
62952;BME280;52163;52.212;-1.002;2023-04-22T05:45:12;99460.83;;;6.42;97.12
62952;BME280;52163;52.212;-1.002;2023-04-22T05:47:37;99461.40;;;6.44;96.58
62952;BME280;52163;52.212;-1.002;2023-04-22T05:50:03;99462.63;;;6.44;96.33
62952;BME280;52163;52.212;-1.002;2023-04-22T05:52:32;99467.11;;;6.45;96.44
62952;BME280;52163;52.212;-1.002;2023-04-22T05:54:57;99464.33;;;6.51;97.08
62952;BME280;52163;52.212;-1.002;2023-04-22T05:57:23;99467.13;;;6.57;96.88
62952;BME280;52163;52.212;-1.002;2023-04-22T05:59:48;99463.08;;;6.63;97.14
62952;BME280;52163;52.212;-1.002;2023-04-22T06:02:13;99467.54;;;6.73;97.38
62952;BME280;52163;52.212;-1.002;2023-04-22T06:04:40;99465.30;;;6.84;97.41
62952;BME280;52163;52.212;-1.002;2023-04-22T06:07:05;99465.86;;;6.95;97.16
62952;BME280;52163;52.212;-1.002;2023-04-22T06:09:31;99470.64;;;7.03;96.34
62952;BME280;52163;52.212;-1.002;2023-04-22T06:11:56;99472.06;;;7.08;96.11
62952;BME280;52163;52.212;-1.002;2023-04-22T06:14:22;99471.15;;;7.15;95.69
62952;BME280;52163;52.212;-1.002;2023-04-22T06:16:47;99473.92;;;7.21;95.75
62952;BME280;52163;52.212;-1.002;2023-04-22T06:19:14;99472.44;;;7.31;95.74
62952;BME280;52163;52.212;-1.002;2023-04-22T06:21:40;99476.52;;;7.38;95.56
62952;BME280;52163;52.212;-1.002;2023-04-22T06:24:07;99473.47;;;7.48;95.45
62952;BME280;52163;52.212;-1.002;2023-04-22T06:26:35;99471.07;;;7.55;95.07
62952;BME280;52163;52.212;-1.002;2023-04-22T06:29:01;99467.73;;;7.64;94.78
62952;BME280;52163;52.212;-1.002;2023-04-22T06:31:30;99467.44;;;7.71;94.56
62952;BME280;52163;52.212;-1.002;2023-04-22T06:33:56;99466.46;;;7.78;94.11
62952;BME280;52163;52.212;-1.002;2023-04-22T06:36:23;99461.11;;;7.84;93.78
62952;BME280;52163;52.212;-1.002;2023-04-22T06:38:49;99463.52;;;7.90;93.27
62952;BME280;52163;52.212;-1.002;2023-04-22T06:41:15;99466.73;;;7.98;93.39
62952;BME280;52163;52.212;-1.002;2023-04-22T06:43:41;99466.82;;;8.05;92.74
62952;BME280;52163;52.212;-1.002;2023-04-22T06:46:06;99468.64;;;8.11;92.48
62952;BME280;52163;52.212;-1.002;2023-04-22T06:48:31;99466.96;;;8.19;92.31
62952;BME280;52163;52.212;-1.002;2023-04-22T06:50:57;99467.20;;;8.20;91.43
62952;BME280;52163;52.212;-1.002;2023-04-22T06:53:22;99465.57;;;8.16;91.30
62952;BME280;52163;52.212;-1.002;2023-04-22T06:55:48;99467.05;;;8.12;91.36
62952;BME280;52163;52.212;-1.002;2023-04-22T06:58:14;99469.14;;;8.07;91.06
62952;BME280;52163;52.212;-1.002;2023-04-22T07:00:39;99471.95;;;8.07;91.29
62952;BME280;52163;52.212;-1.002;2023-04-22T07:03:05;99471.27;;;8.14;91.55
62952;BME280;52163;52.212;-1.002;2023-04-22T07:05:30;99475.90;;;8.27;91.60
62952;BME280;52163;52.212;-1.002;2023-04-22T07:07:56;99475.98;;;8.39;90.75
62952;BME280;52163;52.212;-1.002;2023-04-22T07:10:21;99479.80;;;8.51;90.40
62952;BME280;52163;52.212;-1.002;2023-04-22T07:12:47;99476.41;;;8.59;89.51
62952;BME280;52163;52.212;-1.002;2023-04-22T07:15:12;99481.14;;;8.67;89.17
62952;BME280;52163;52.212;-1.002;2023-04-22T07:17:37;99491.30;;;8.79;89.36
62952;BME280;52163;52.212;-1.002;2023-04-22T07:20:04;99494.12;;;8.94;89.19
62952;BME280;52163;52.212;-1.002;2023-04-22T07:22:29;99490.52;;;9.13;88.56
62952;BME280;52163;52.212;-1.002;2023-04-22T07:24:55;99485.59;;;9.32;88.18
62952;BME280;52163;52.212;-1.002;2023-04-22T07:27:20;99476.46;;;9.54;87.75
62952;BME280;52163;52.212;-1.002;2023-04-22T07:29:45;99471.34;;;9.79;86.69
62952;BME280;52163;52.212;-1.002;2023-04-22T07:32:11;99473.35;;;9.92;85.68
62952;BME280;52163;52.212;-1.002;2023-04-22T07:34:36;99480.77;;;10.02;85.27
62952;BME280;52163;52.212;-1.002;2023-04-22T07:37:01;99480.61;;;10.11;84.86
62952;BME280;52163;52.212;-1.002;2023-04-22T07:39:27;99473.15;;;10.09;83.91
62952;BME280;52163;52.212;-1.002;2023-04-22T07:41:53;99460.36;;;10.06;83.95
62952;BME280;52163;52.212;-1.002;2023-04-22T07:44:20;99460.92;;;9.96;83.38
62952;BME280;52163;52.212;-1.002;2023-04-22T07:46:46;99462.13;;;9.97;83.09
62952;BME280;52163;52.212;-1.002;2023-04-22T07:49:12;99460.30;;;10.19;83.28
62952;BME280;52163;52.212;-1.002;2023-04-22T07:51:39;99459.04;;;10.52;83.27
62952;BME280;52163;52.212;-1.002;2023-04-22T07:54:05;99459.74;;;10.89;82.86
62952;BME280;52163;52.212;-1.002;2023-04-22T07:56:30;99458.67;;;11.14;81.90
62952;BME280;52163;52.212;-1.002;2023-04-22T07:58:56;99461.30;;;11.30;80.81
62952;BME280;52163;52.212;-1.002;2023-04-22T08:01:21;99467.84;;;11.43;80.07
62952;BME280;52163;52.212;-1.002;2023-04-22T08:03:46;99469.07;;;11.53;79.30
62952;BME280;52163;52.212;-1.002;2023-04-22T08:06:12;99469.27;;;11.48;77.98
62952;BME280;52163;52.212;-1.002;2023-04-22T08:08:37;99471.64;;;11.36;77.58
62952;BME280;52163;52.212;-1.002;2023-04-22T08:11:03;99472.64;;;11.18;77.89
62952;BME280;52163;52.212;-1.002;2023-04-22T08:13:28;99473.89;;;11.00;77.68
62952;BME280;52163;52.212;-1.002;2023-04-22T08:15:53;99475.58;;;10.85;77.56
62952;BME280;52163;52.212;-1.002;2023-04-22T08:18:19;99472.40;;;10.81;77.84
62952;BME280;52163;52.212;-1.002;2023-04-22T08:20:46;99472.23;;;10.83;78.05
62952;BME280;52163;52.212;-1.002;2023-04-22T08:23:11;99473.75;;;10.91;77.97
62952;BME280;52163;52.212;-1.002;2023-04-22T08:25:37;99477.41;;;10.91;78.05
62952;BME280;52163;52.212;-1.002;2023-04-22T08:28:02;99475.08;;;10.83;77.29
62952;BME280;52163;52.212;-1.002;2023-04-22T08:30:27;99475.94;;;10.73;77.26
62952;BME280;52163;52.212;-1.002;2023-04-22T08:32:53;99473.32;;;10.69;77.87
62952;BME280;52163;52.212;-1.002;2023-04-22T08:35:19;99473.39;;;10.66;77.90
62952;BME280;52163;52.212;-1.002;2023-04-22T08:37:44;99471.96;;;10.70;78.14
62952;BME280;52163;52.212;-1.002;2023-04-22T08:40:10;99474.38;;;10.73;77.82
62952;BME280;52163;52.212;-1.002;2023-04-22T08:42:36;99475.77;;;10.65;77.66
62952;BME280;52163;52.212;-1.002;2023-04-22T08:45:03;99472.27;;;10.55;77.70
62952;BME280;52163;52.212;-1.002;2023-04-22T08:47:30;99468.71;;;10.46;77.89
62952;BME280;52163;52.212;-1.002;2023-04-22T08:50:01;99467.35;;;10.50;77.79
62952;BME280;52163;52.212;-1.002;2023-04-22T08:52:29;99468.87;;;10.72;77.84
62952;BME280;52163;52.212;-1.002;2023-04-22T08:54:55;99464.88;;;11.14;77.67
62952;BME280;52163;52.212;-1.002;2023-04-22T08:57:20;99456.88;;;11.65;76.92
62952;BME280;52163;52.212;-1.002;2023-04-22T08:59:47;99451.15;;;12.14;76.37
62952;BME280;52163;52.212;-1.002;2023-04-22T09:02:18;99452.14;;;12.49;74.76
62952;BME280;52163;52.212;-1.002;2023-04-22T09:04:46;99451.96;;;12.70;73.29
62952;BME280;52163;52.212;-1.002;2023-04-22T09:07:25;99455.69;;;12.72;72.16
62952;BME280;52163;52.212;-1.002;2023-04-22T09:09:53;99458.39;;;12.61;71.09
62952;BME280;52163;52.212;-1.002;2023-04-22T09:12:20;99457.32;;;12.55;71.53
62952;BME280;52163;52.212;-1.002;2023-04-22T09:14:45;99456.18;;;12.58;71.27
62952;BME280;52163;52.212;-1.002;2023-04-22T09:17:15;99451.29;;;12.69;70.72
62952;BME280;52163;52.212;-1.002;2023-04-22T09:19:41;99451.88;;;12.92;70.60
62952;BME280;52163;52.212;-1.002;2023-04-22T09:22:09;99447.27;;;13.12;70.61
62952;BME280;52163;52.212;-1.002;2023-04-22T09:24:41;99443.81;;;13.27;70.32
62952;BME280;52163;52.212;-1.002;2023-04-22T09:27:08;99443.60;;;13.32;69.51
62952;BME280;52163;52.212;-1.002;2023-04-22T09:29:34;99448.14;;;13.37;69.14
62952;BME280;52163;52.212;-1.002;2023-04-22T09:31:59;99454.78;;;13.42;69.05
62952;BME280;52163;52.212;-1.002;2023-04-22T09:34:26;99454.36;;;13.51;69.03
62952;BME280;52163;52.212;-1.002;2023-04-22T09:36:53;99448.77;;;13.58;68.93
62952;BME280;52163;52.212;-1.002;2023-04-22T09:39:18;99449.46;;;13.62;68.49
62952;BME280;52163;52.212;-1.002;2023-04-22T09:41:43;99450.38;;;13.66;68.45
62952;BME280;52163;52.212;-1.002;2023-04-22T09:44:13;99448.59;;;13.74;68.36
62952;BME280;52163;52.212;-1.002;2023-04-22T09:46:43;99454.88;;;13.89;68.27
62952;BME280;52163;52.212;-1.002;2023-04-22T09:49:08;99453.15;;;14.06;67.68
62952;BME280;52163;52.212;-1.002;2023-04-22T09:51:39;99449.72;;;14.20;67.09
62952;BME280;52163;52.212;-1.002;2023-04-22T09:54:06;99446.02;;;14.37;66.55
62952;BME280;52163;52.212;-1.002;2023-04-22T09:56:53;99446.63;;;14.42;65.25
62952;BME280;52163;52.212;-1.002;2023-04-22T09:59:27;99445.33;;;14.45;64.74
62952;BME280;52163;52.212;-1.002;2023-04-22T10:02:01;99440.73;;;14.52;65.07
62952;BME280;52163;52.212;-1.002;2023-04-22T10:04:31;99443.13;;;14.53;64.42
62952;BME280;52163;52.212;-1.002;2023-04-22T10:06:57;99436.42;;;14.55;64.43
62952;BME280;52163;52.212;-1.002;2023-04-22T10:09:23;99437.30;;;14.68;64.82
62952;BME280;52163;52.212;-1.002;2023-04-22T10:11:51;99435.05;;;14.77;64.25
62952;BME280;52163;52.212;-1.002;2023-04-22T10:14:20;99430.14;;;14.84;63.82
62952;BME280;52163;52.212;-1.002;2023-04-22T10:16:46;99427.70;;;14.91;63.63
62952;BME280;52163;52.212;-1.002;2023-04-22T10:19:18;99421.77;;;14.90;61.85
62952;BME280;52163;52.212;-1.002;2023-04-22T10:21:45;99419.99;;;14.80;61.50
62952;BME280;52163;52.212;-1.002;2023-04-22T10:24:16;99422.33;;;14.83;61.85
62952;BME280;52163;52.212;-1.002;2023-04-22T10:29:14;99425.28;;;14.85;61.96
62952;BME280;52163;52.212;-1.002;2023-04-22T10:34:16;99421.25;;;14.71;61.93
62952;BME280;52163;52.212;-1.002;2023-04-22T10:36:57;99417.51;;;14.67;61.73
62952;BME280;52163;52.212;-1.002;2023-04-22T10:39:24;99420.34;;;14.67;61.59
62952;BME280;52163;52.212;-1.002;2023-04-22T10:41:52;99416.16;;;14.60;61.63
62952;BME280;52163;52.212;-1.002;2023-04-22T10:44:18;99423.50;;;14.50;61.09
62952;BME280;52163;52.212;-1.002;2023-04-22T10:49:19;99419.41;;;14.35;60.87
62952;BME280;52163;52.212;-1.002;2023-04-22T10:51:47;99420.80;;;14.35;60.79
62952;BME280;52163;52.212;-1.002;2023-04-22T10:59:32;99413.89;;;14.22;60.53
62952;BME280;52163;52.212;-1.002;2023-04-22T11:02:01;99408.84;;;14.27;60.87
62952;BME280;52163;52.212;-1.002;2023-04-22T11:04:27;99405.34;;;14.30;60.58
62952;BME280;52163;52.212;-1.002;2023-04-22T11:09:53;99405.55;;;14.26;59.62
62952;BME280;52163;52.212;-1.002;2023-04-22T11:17:31;99404.86;;;14.63;59.32
62952;BME280;52163;52.212;-1.002;2023-04-22T11:19:57;99405.40;;;14.75;58.56
62952;BME280;52163;52.212;-1.002;2023-04-22T11:22:23;99398.53;;;14.84;58.03
62952;BME280;52163;52.212;-1.002;2023-04-22T11:24:55;99399.08;;;14.93;57.86
62952;BME280;52163;52.212;-1.002;2023-04-22T11:27:21;99394.05;;;15.04;57.45
62952;BME280;52163;52.212;-1.002;2023-04-22T11:32:41;99390.42;;;15.26;56.23
62952;BME280;52163;52.212;-1.002;2023-04-22T11:35:09;99396.48;;;15.35;55.55
62952;BME280;52163;52.212;-1.002;2023-04-22T11:37:44;99390.30;;;15.49;54.97
62952;BME280;52163;52.212;-1.002;2023-04-22T11:40:11;99382.90;;;15.70;55.21
62952;BME280;52163;52.212;-1.002;2023-04-22T11:42:37;99384.51;;;15.88;54.24
62952;BME280;52163;52.212;-1.002;2023-04-22T11:45:04;99379.67;;;16.03;54.05
62952;BME280;52163;52.212;-1.002;2023-04-22T11:47:30;99378.01;;;16.15;53.41
62952;BME280;52163;52.212;-1.002;2023-04-22T11:49:57;99378.98;;;16.27;52.97
62952;BME280;52163;52.212;-1.002;2023-04-22T11:52:24;99378.66;;;16.41;52.96
62952;BME280;52163;52.212;-1.002;2023-04-22T11:54:50;99384.20;;;16.51;52.60
62952;BME280;52163;52.212;-1.002;2023-04-22T11:57:16;99383.85;;;16.61;52.47
62952;BME280;52163;52.212;-1.002;2023-04-22T11:59:42;99386.55;;;16.72;51.76
62952;BME280;52163;52.212;-1.002;2023-04-22T12:02:08;99394.27;;;16.87;51.54
62952;BME280;52163;52.212;-1.002;2023-04-22T12:04:43;99395.02;;;16.97;51.18
62952;BME280;52163;52.212;-1.002;2023-04-22T12:07:08;99398.05;;;17.02;50.49
62952;BME280;52163;52.212;-1.002;2023-04-22T12:09:34;99399.79;;;17.09;50.83
62952;BME280;52163;52.212;-1.002;2023-04-22T12:12:01;99406.97;;;17.16;50.21
62952;BME280;52163;52.212;-1.002;2023-04-22T12:14:31;99403.90;;;17.16;49.77
62952;BME280;52163;52.212;-1.002;2023-04-22T12:16:57;99405.71;;;17.15;49.68
62952;BME280;52163;52.212;-1.002;2023-04-22T12:19:25;99405.44;;;17.11;49.65
62952;BME280;52163;52.212;-1.002;2023-04-22T12:21:55;99402.98;;;17.15;49.65
62952;BME280;52163;52.212;-1.002;2023-04-22T12:24:26;99408.48;;;17.17;49.40
62952;BME280;52163;52.212;-1.002;2023-04-22T12:26:53;99409.02;;;17.22;49.11
62952;BME280;52163;52.212;-1.002;2023-04-22T12:29:32;99407.45;;;17.33;49.38
62952;BME280;52163;52.212;-1.002;2023-04-22T12:31:58;99410.42;;;17.47;49.14
62952;BME280;52163;52.212;-1.002;2023-04-22T12:34:24;99407.14;;;17.58;49.00
62952;BME280;52163;52.212;-1.002;2023-04-22T12:36:49;99408.48;;;17.64;48.06
62952;BME280;52163;52.212;-1.002;2023-04-22T12:39:15;99409.95;;;17.62;47.77
62952;BME280;52163;52.212;-1.002;2023-04-22T12:41:43;99406.23;;;17.60;48.17
62952;BME280;52163;52.212;-1.002;2023-04-22T12:44:08;99407.48;;;17.65;48.83
62952;BME280;52163;52.212;-1.002;2023-04-22T12:46:34;99409.79;;;17.77;49.00
62952;BME280;52163;52.212;-1.002;2023-04-22T12:49:00;99412.44;;;17.85;47.75
62952;BME280;52163;52.212;-1.002;2023-04-22T12:51:25;99412.89;;;17.85;47.75
62952;BME280;52163;52.212;-1.002;2023-04-22T12:53:51;99413.73;;;17.89;47.70
62952;BME280;52163;52.212;-1.002;2023-04-22T12:56:17;99414.13;;;17.88;46.97
62952;BME280;52163;52.212;-1.002;2023-04-22T12:58:42;99413.94;;;18.00;47.59
62952;BME280;52163;52.212;-1.002;2023-04-22T13:01:08;99409.02;;;18.19;47.53
62952;BME280;52163;52.212;-1.002;2023-04-22T13:03:33;99408.16;;;18.28;47.18
62952;BME280;52163;52.212;-1.002;2023-04-22T13:05:58;99407.03;;;18.40;46.86
62952;BME280;52163;52.212;-1.002;2023-04-22T13:08:25;99414.31;;;18.42;46.07
62952;BME280;52163;52.212;-1.002;2023-04-22T13:10:50;99414.92;;;18.35;44.79
62952;BME280;52163;52.212;-1.002;2023-04-22T13:13:16;99412.99;;;18.20;44.73